createdAt,value
2022-09-23T00:01:14.811Z,71.18
2022-09-23T00:03:47.471Z,68.70
2022-09-23T00:06:20.083Z,68.76
2022-09-23T00:08:49.746Z,68.24
2022-09-23T00:11:23.567Z,67.96
2022-09-23T00:13:55.428Z,67.89
2022-09-23T00:16:29.825Z,70.19
2022-09-23T00:18:57.156Z,69.61
2022-09-23T00:21:25.280Z,69.52
2022-09-23T00:23:52.448Z,67.45
2022-09-23T00:26:22.636Z,68.05
2022-09-23T00:28:50.448Z,66.42
2022-09-23T00:31:22.150Z,68.09
2022-09-23T00:33:58.180Z,68.94
2022-09-23T00:36:27.450Z,71.63
2022-09-23T00:38:55.324Z,72.84
2022-09-23T00:41:23.453Z,73.21
2022-09-23T00:44:00.249Z,73.09
2022-09-23T00:46:40.856Z,73.43
2022-09-23T00:49:29.465Z,72.53
2022-09-23T00:52:06.484Z,75.18
2022-09-23T00:54:34.221Z,74.37
2022-09-23T00:57:03.874Z,74.03
2022-09-23T00:59:32.200Z,73.13
2022-09-23T01:02:02.253Z,74.24
2022-09-23T01:04:30.450Z,74.46
2022-09-23T01:06:57.516Z,74.39
2022-09-23T01:09:25.359Z,74.40
2022-09-23T01:12:19.682Z,72.63
2022-09-23T01:15:09.102Z,71.22
2022-09-23T01:17:56.906Z,71.00
2022-09-23T01:20:55.241Z,68.45
2022-09-23T01:24:15.453Z,69.25
2022-09-23T01:27:19.488Z,72.34
2022-09-23T01:30:16.598Z,72.82
2022-09-23T01:32:56.661Z,72.48
2022-09-23T01:36:04.521Z,69.23
2022-09-23T01:38:52.384Z,67.98
2022-09-23T01:41:28.516Z,69.48
2022-09-23T01:44:19.025Z,72.85
2022-09-23T01:47:10.884Z,68.72
2022-09-23T01:50:24.826Z,69.39
2022-09-23T01:52:56.126Z,67.50
2022-09-23T01:55:30.771Z,70.85
2022-09-23T01:58:06.822Z,73.21
2022-09-23T02:00:41.454Z,73.89
2022-09-23T02:03:17.273Z,70.67
2022-09-23T02:06:28.002Z,69.05
2022-09-23T02:09:54.128Z,68.88
2022-09-23T02:12:28.479Z,69.76
2022-09-23T02:15:23.561Z,70.76
2022-09-23T02:18:01.888Z,72.28
2022-09-23T02:20:36.818Z,73.90
2022-09-23T02:23:08.674Z,72.17
2022-09-23T02:25:57.039Z,72.27
2022-09-23T02:28:44.495Z,70.64
2022-09-23T02:31:57.977Z,72.51
2022-09-23T02:34:50.044Z,74.21
2022-09-23T02:37:36.379Z,74.83
2022-09-23T02:40:42.587Z,75.54
2022-09-23T02:43:22.438Z,75.09
2022-09-23T02:45:50.194Z,74.54
2022-09-23T02:48:26.342Z,75.01
2022-09-23T02:50:54.387Z,76.07
2022-09-23T02:53:24.524Z,76.59
2022-09-23T02:55:51.594Z,75.73
2022-09-23T02:58:18.740Z,75.42
2022-09-23T03:01:07.038Z,74.99
2022-09-23T03:03:58.362Z,75.51
2022-09-23T03:06:51.183Z,75.18
2022-09-23T03:09:36.193Z,76.00
2022-09-23T03:12:34.319Z,74.30
2022-09-23T03:15:31.235Z,72.52
2022-09-23T03:18:35.124Z,74.45
2022-09-23T03:21:06.315Z,75.14
2022-09-23T03:23:40.677Z,75.10
2022-09-23T03:26:14.665Z,73.57
2022-09-23T03:28:45.188Z,71.22
2022-09-23T03:31:14.376Z,69.46
2022-09-23T03:33:48.188Z,70.00
2022-09-23T03:36:40.816Z,70.60
2022-09-23T03:39:13.889Z,70.36
2022-09-23T03:41:50.799Z,72.60
2022-09-23T03:44:19.648Z,72.04
2022-09-23T03:46:49.971Z,73.67
2022-09-23T03:49:24.262Z,74.21
2022-09-23T03:51:51.331Z,71.50
2022-09-23T03:54:20.349Z,70.71
2022-09-23T03:56:48.043Z,69.63
2022-09-23T03:59:16.461Z,69.69
2022-09-23T04:01:44.029Z,68.41
2022-09-23T04:04:11.006Z,68.92
2022-09-23T04:06:38.038Z,69.41
2022-09-23T04:09:04.935Z,69.25
2022-09-23T04:11:32.463Z,69.19
2022-09-23T04:13:59.688Z,68.50
2022-09-23T04:16:27.246Z,69.71
2022-09-23T04:18:54.740Z,72.85
2022-09-23T04:21:22.211Z,73.80
2022-09-23T04:23:49.104Z,73.45
2022-09-23T04:26:16.664Z,74.60
2022-09-23T04:28:43.642Z,74.79
2022-09-23T04:31:11.124Z,73.57
2022-09-23T04:33:38.063Z,73.76
2022-09-23T04:36:05.523Z,73.94
2022-09-23T04:38:32.470Z,74.33
2022-09-23T04:40:59.607Z,74.11
2022-09-23T04:43:26.525Z,72.67
2022-09-23T04:46:02.278Z,76.05
2022-09-23T04:48:29.612Z,73.63
2022-09-23T04:51:10.717Z,74.36
2022-09-23T04:53:39.836Z,72.26
2022-09-23T04:56:19.650Z,75.68
2022-09-23T04:58:47.252Z,75.71
2022-09-23T05:01:27.485Z,75.71
2022-09-23T05:03:58.608Z,76.20
2022-09-23T05:06:25.719Z,74.24
2022-09-23T05:08:57.752Z,75.31
2022-09-23T05:11:25.987Z,74.23
2022-09-23T05:13:54.595Z,74.95
2022-09-23T05:16:23.740Z,73.92
2022-09-23T05:18:52.457Z,72.56
2022-09-23T05:21:23.474Z,70.68
2022-09-23T05:23:55.263Z,69.16
2022-09-23T05:26:27.734Z,73.10
2022-09-23T05:28:55.991Z,71.69
2022-09-23T05:31:26.912Z,70.25
2022-09-23T05:34:00.928Z,72.52
2022-09-23T05:36:34.289Z,70.97
2022-09-23T05:39:05.696Z,71.69
2022-09-23T05:41:33.799Z,69.78
2022-09-23T05:44:01.292Z,71.17
2022-09-23T05:46:30.817Z,72.71
2022-09-23T05:49:02.880Z,72.87
2022-09-23T05:51:31.650Z,70.27
2022-09-23T05:53:59.996Z,72.07
2022-09-23T05:56:28.610Z,70.83
2022-09-23T05:58:58.477Z,69.97
2022-09-23T06:01:29.219Z,69.45
2022-09-23T06:03:58.482Z,67.23
2022-09-23T06:06:39.527Z,69.06
2022-09-23T06:09:09.999Z,67.85
2022-09-23T06:11:37.866Z,67.86
2022-09-23T06:14:05.555Z,67.94
2022-09-23T06:19:20.259Z,67.91
2022-09-23T06:21:49.037Z,68.88
2022-09-23T06:24:19.906Z,70.19
2022-09-23T06:26:49.416Z,69.92
2022-09-23T06:29:16.393Z,69.21
2022-09-23T06:31:43.945Z,70.19
2022-09-23T06:34:14.380Z,71.14
2022-09-23T06:36:46.371Z,70.77
2022-09-23T06:39:16.899Z,71.07
2022-09-23T06:41:46.849Z,71.11
2022-09-23T06:44:14.966Z,69.97
2022-09-23T06:46:42.464Z,69.90
2022-09-23T06:49:09.623Z,68.81
2022-09-23T06:51:36.668Z,69.41
2022-09-23T06:54:04.100Z,72.22
2022-09-23T06:56:36.118Z,69.47
2022-09-23T06:59:05.347Z,68.73
2022-09-23T07:01:33.403Z,70.13
2022-09-23T07:04:01.701Z,71.65
2022-09-23T07:06:29.055Z,69.61
2022-09-23T07:08:55.951Z,69.61
2022-09-23T07:11:23.042Z,68.70
2022-09-23T07:13:50.144Z,69.00
2022-09-23T07:16:17.113Z,69.85
2022-09-23T07:18:45.032Z,68.73
2022-09-23T07:21:15.875Z,70.74
2022-09-23T07:23:50.007Z,69.82
2022-09-23T07:26:19.135Z,69.56
2022-09-23T07:28:46.892Z,69.08
2022-09-23T07:31:26.129Z,69.97
2022-09-23T07:33:57.948Z,69.79
2022-09-23T07:36:27.925Z,69.07
2022-09-23T07:39:00.678Z,68.21
2022-09-23T07:41:28.962Z,68.72
2022-09-23T07:43:58.849Z,67.83
2022-09-23T07:46:30.044Z,67.56
2022-09-23T07:48:57.739Z,66.95
2022-09-23T07:51:36.078Z,69.82
2022-09-23T07:54:07.852Z,69.29
2022-09-23T07:56:36.016Z,68.23
2022-09-23T07:59:04.080Z,68.83
2022-09-23T08:01:34.773Z,68.42
2022-09-23T08:04:11.244Z,68.93
2022-09-23T08:06:57.638Z,68.32
2022-09-23T08:09:31.956Z,67.98
2022-09-23T08:11:59.123Z,66.37
2022-09-23T08:14:26.181Z,66.45
2022-09-23T08:16:54.213Z,65.27
2022-09-23T08:19:21.127Z,64.96
2022-09-23T08:21:49.912Z,65.06
2022-09-23T08:24:20.815Z,64.61
2022-09-23T08:26:49.174Z,65.41
2022-09-23T08:29:19.288Z,64.98
2022-09-23T08:31:46.575Z,64.42
2022-09-23T08:34:13.947Z,64.80
2022-09-23T08:36:40.826Z,64.99
2022-09-23T08:39:08.848Z,63.68
2022-09-23T08:42:02.078Z,62.92
2022-09-23T08:44:57.028Z,63.27
2022-09-23T08:47:35.486Z,62.61
2022-09-23T08:50:25.007Z,62.47
2022-09-23T08:53:23.038Z,62.64
2022-09-23T08:55:54.066Z,62.70
2022-09-23T08:58:39.494Z,61.64
2022-09-23T09:01:34.703Z,61.36
2022-09-23T09:04:14.502Z,59.76
2022-09-23T09:07:34.606Z,59.29
2022-09-23T09:10:25.484Z,57.34
2022-09-23T09:13:07.616Z,54.48
2022-09-23T09:15:46.663Z,54.91
2022-09-23T09:18:19.956Z,54.01
2022-09-23T09:20:57.226Z,54.17
2022-09-23T09:23:56.641Z,53.72
2022-09-23T09:26:34.528Z,53.67
2022-09-23T09:29:34.085Z,52.81
2022-09-23T09:32:38.414Z,52.74
2022-09-23T09:35:33.269Z,52.59
2022-09-23T09:38:01.776Z,51.38
2022-09-23T09:40:29.106Z,50.92
2022-09-23T09:42:56.041Z,50.50
2022-09-23T09:46:02.549Z,50.27
2022-09-23T09:48:50.312Z,49.85
2022-09-23T09:51:27.988Z,49.82
2022-09-23T09:54:15.027Z,50.50
2022-09-23T09:56:44.801Z,48.71
2022-09-23T09:59:23.480Z,48.93
2022-09-23T10:02:10.633Z,49.69
2022-09-23T10:04:37.785Z,48.08
2022-09-23T10:07:16.104Z,49.10
2022-09-23T10:09:51.142Z,47.43
2022-09-23T10:12:26.122Z,46.95
2022-09-23T10:14:57.517Z,47.22
2022-09-23T10:17:36.398Z,47.27
2022-09-23T10:20:09.090Z,46.08
2022-09-23T10:22:40.515Z,45.33
2022-09-23T10:25:16.834Z,47.95
2022-09-23T10:27:45.881Z,48.19
2022-09-23T10:30:24.486Z,47.03
2022-09-23T10:32:57.557Z,48.41
2022-09-23T10:35:26.548Z,47.64
2022-09-23T10:37:55.937Z,46.91
2022-09-23T10:44:37.285Z,47.45
2022-09-23T10:47:35.976Z,45.06
2022-09-23T10:50:11.613Z,45.28
2022-09-23T10:52:46.701Z,44.91
2022-09-23T10:55:57.682Z,43.72
2022-09-23T10:58:54.483Z,43.13
2022-09-23T11:01:43.874Z,45.74
2022-09-23T11:04:32.631Z,44.58
2022-09-23T11:07:39.373Z,44.04
2022-09-23T11:10:44.833Z,44.62
2022-09-23T11:13:36.070Z,43.71
2022-09-23T11:16:18.352Z,44.95
2022-09-23T11:19:18.596Z,44.41
2022-09-23T11:22:01.806Z,44.37
2022-09-23T11:25:17.787Z,44.17
2022-09-23T11:28:21.045Z,45.09
2022-09-23T11:31:05.321Z,45.07
2022-09-23T11:33:55.890Z,45.75
2022-09-23T11:36:32.653Z,45.91
2022-09-23T11:39:10.076Z,46.17
2022-09-23T11:41:39.774Z,45.97
2022-09-23T11:44:39.720Z,45.51
2022-09-23T11:47:16.455Z,45.81
2022-09-23T11:50:32.619Z,46.33
2022-09-23T11:53:48.456Z,45.81
2022-09-23T11:56:35.561Z,44.54
2022-09-23T11:59:42.138Z,45.05
2022-09-23T12:02:28.207Z,45.68
2022-09-23T12:05:17.343Z,46.00
2022-09-23T12:08:20.243Z,44.90
2022-09-23T12:11:18.752Z,45.94
2022-09-23T12:14:23.903Z,44.81
2022-09-23T12:17:16.695Z,44.31
2022-09-23T12:20:42.412Z,44.72
2022-09-23T12:23:27.420Z,44.11
2022-09-23T12:26:01.919Z,43.06
2022-09-23T12:28:43.473Z,42.52
2022-09-23T12:31:19.225Z,44.44
2022-09-23T12:34:30.318Z,43.80
2022-09-23T12:37:04.768Z,43.32
2022-09-23T12:39:35.494Z,41.83
2022-09-23T12:42:16.277Z,43.36
2022-09-23T12:44:47.202Z,43.94
2022-09-23T12:47:28.322Z,42.16
2022-09-23T12:50:01.148Z,42.59
2022-09-23T12:52:33.531Z,44.87
2022-09-23T12:55:35.406Z,44.88
2022-09-23T12:58:02.479Z,44.60
2022-09-23T13:00:34.087Z,44.27
2022-09-23T13:03:21.274Z,45.51
2022-09-23T13:06:19.454Z,45.74
2022-09-23T13:08:47.555Z,44.42
2022-09-23T13:11:17.611Z,45.52
2022-09-23T13:13:46.156Z,46.17
2022-09-23T13:16:45.780Z,44.91
2022-09-23T13:19:39.332Z,45.60
2022-09-23T13:22:11.183Z,45.62
2022-09-23T13:24:53.419Z,44.78
2022-09-23T13:27:22.320Z,44.24
2022-09-23T13:30:07.722Z,44.61
2022-09-23T13:32:42.391Z,44.43
2022-09-23T13:35:32.835Z,44.84
2022-09-23T13:38:09.133Z,44.26
2022-09-23T13:40:37.013Z,46.51
2022-09-23T13:43:09.363Z,46.79
2022-09-23T13:45:41.367Z,45.49
2022-09-23T13:48:15.575Z,45.87
2022-09-23T13:50:50.697Z,46.58
2022-09-23T13:53:30.248Z,46.52
2022-09-23T13:56:16.890Z,46.51
2022-09-23T13:58:43.968Z,47.03
2022-09-23T14:01:29.888Z,45.45
2022-09-23T14:03:57.120Z,45.99
2022-09-23T14:06:26.686Z,46.32
2022-09-23T14:08:54.074Z,45.91
2022-09-23T14:11:29.399Z,46.35
2022-09-23T14:13:57.023Z,45.52
2022-09-23T14:16:28.098Z,45.05
2022-09-23T14:19:00.349Z,45.37
2022-09-23T14:21:39.988Z,47.08
2022-09-23T14:24:20.627Z,47.08
2022-09-23T14:27:01.790Z,47.45
2022-09-23T14:29:38.192Z,47.03
2022-09-23T14:32:23.758Z,46.87
2022-09-23T14:35:08.198Z,46.68
2022-09-23T14:37:56.496Z,46.36
2022-09-23T14:40:49.805Z,46.84
2022-09-23T14:43:26.767Z,46.62
2022-09-23T14:45:58.739Z,47.48
2022-09-23T14:48:33.451Z,47.03
2022-09-23T14:51:14.486Z,47.16
2022-09-23T14:53:49.139Z,47.59
2022-09-23T14:56:20.303Z,48.32
2022-09-23T14:59:00.771Z,47.58
2022-09-23T15:01:30.995Z,47.60
2022-09-23T15:04:01.248Z,47.20
2022-09-23T15:06:28.436Z,47.22
2022-09-23T15:08:56.168Z,46.93
2022-09-23T15:11:23.255Z,46.85
2022-09-23T15:13:53.103Z,47.41
2022-09-23T15:16:28.021Z,48.14
2022-09-23T15:19:00.825Z,48.69
2022-09-23T15:21:44.706Z,47.96
2022-09-23T15:24:38.381Z,48.88
2022-09-23T15:27:27.227Z,49.00
2022-09-23T15:29:54.714Z,48.53
2022-09-23T15:32:22.057Z,48.74
2022-09-23T15:34:50.557Z,48.89
2022-09-23T15:37:17.776Z,48.50
2022-09-23T15:39:44.835Z,49.26
2022-09-23T15:42:12.046Z,50.04
2022-09-23T15:44:39.061Z,49.71
2022-09-23T15:47:06.623Z,49.63
2022-09-23T15:49:41.800Z,49.46
2022-09-23T15:52:10.724Z,49.43
2022-09-23T15:54:37.899Z,49.41
2022-09-23T15:57:05.578Z,49.98
2022-09-23T15:59:33.131Z,50.05
2022-09-23T16:02:06.691Z,50.07
2022-09-23T16:04:34.130Z,50.82
2022-09-23T16:07:01.633Z,50.25
2022-09-23T16:09:31.517Z,49.77
2022-09-23T16:11:58.450Z,50.50
2022-09-23T16:14:25.313Z,51.50
2022-09-23T16:16:52.414Z,50.86
2022-09-23T16:19:19.352Z,52.73
2022-09-23T16:21:46.402Z,52.90
2022-09-23T16:24:19.158Z,52.64
2022-09-23T16:26:48.113Z,53.39
2022-09-23T16:29:15.678Z,54.52
2022-09-23T16:31:43.026Z,54.90
2022-09-23T16:34:10.069Z,55.12
2022-09-23T16:36:43.277Z,54.00
2022-09-23T16:39:13.064Z,54.01
2022-09-23T16:41:41.051Z,55.25
2022-09-23T16:44:10.755Z,56.46
2022-09-23T16:46:37.949Z,56.49
2022-09-23T16:49:05.037Z,56.46
2022-09-23T16:51:38.916Z,56.62
2022-09-23T16:54:12.189Z,57.18
2022-09-23T16:56:45.186Z,57.18
2022-09-23T16:59:15.296Z,56.43
2022-09-23T17:02:02.097Z,56.41
2022-09-23T17:04:29.606Z,57.96
2022-09-23T17:06:56.701Z,57.85
2022-09-23T17:09:30.332Z,57.84
2022-09-23T17:12:20.093Z,57.72
2022-09-23T17:14:47.115Z,58.23
2022-09-23T17:17:13.988Z,58.16
2022-09-23T17:19:41.435Z,58.33
2022-09-23T17:22:09.204Z,58.43
2022-09-23T17:24:36.154Z,58.06
2022-09-23T17:27:03.380Z,58.16
2022-09-23T17:29:30.521Z,58.57
2022-09-23T17:31:58.048Z,58.19
2022-09-23T17:34:25.530Z,58.21
2022-09-23T17:36:52.359Z,57.66
2022-09-23T17:39:19.291Z,57.60
2022-09-23T17:41:46.393Z,59.26
2022-09-23T17:44:14.279Z,59.61
2022-09-23T17:46:41.197Z,58.99
2022-09-23T17:49:09.205Z,59.12
2022-09-23T17:51:36.744Z,59.81
2022-09-23T17:54:03.988Z,60.14
2022-09-23T17:56:30.978Z,59.27
2022-09-23T17:59:04.437Z,59.80
2022-09-23T18:01:31.343Z,59.59
2022-09-23T18:04:01.655Z,60.01
2022-09-23T18:06:31.730Z,59.37
2022-09-23T18:09:06.938Z,58.55
2022-09-23T18:11:37.431Z,57.99
2022-09-23T18:14:11.834Z,58.49
2022-09-23T18:16:41.370Z,59.74
2022-09-23T18:19:13.470Z,58.60
2022-09-23T18:21:44.647Z,59.22
2022-09-23T18:27:00.411Z,59.78
2022-09-23T18:29:27.540Z,58.88
2022-09-23T18:31:54.902Z,59.65
2022-09-23T18:34:22.253Z,59.01
2022-09-23T18:36:49.295Z,59.01
2022-09-23T18:39:16.881Z,58.22
2022-09-23T18:41:43.831Z,59.71
2022-09-23T18:44:10.915Z,59.17
2022-09-23T18:46:38.097Z,60.71
2022-09-23T18:49:23.765Z,60.94
2022-09-23T18:51:57.983Z,62.09
2022-09-23T18:54:27.912Z,62.58
2022-09-23T18:56:56.555Z,62.28
2022-09-23T18:59:27.830Z,63.07
2022-09-23T19:01:55.756Z,61.77
2022-09-23T19:04:25.269Z,62.22
2022-09-23T19:06:56.325Z,63.86
2022-09-23T19:09:23.577Z,62.52
2022-09-23T19:11:52.416Z,62.27
2022-09-23T19:14:19.968Z,61.85
2022-09-23T19:16:49.035Z,64.82
2022-09-23T19:19:16.395Z,64.31
2022-09-23T19:21:43.528Z,63.60
2022-09-23T19:24:15.549Z,62.67
2022-09-23T19:26:43.671Z,63.00
2022-09-23T19:29:16.510Z,63.36
2022-09-23T19:31:44.194Z,63.87
2022-09-23T19:34:17.793Z,62.89
2022-09-23T19:36:46.891Z,65.21
2022-09-23T19:39:23.605Z,62.17
2022-09-23T19:41:52.459Z,64.28
2022-09-23T19:44:20.121Z,64.03
2022-09-23T19:46:54.890Z,63.58
2022-09-23T19:49:24.030Z,63.85
2022-09-23T19:51:51.003Z,65.06
2022-09-23T19:54:20.838Z,64.45
2022-09-23T19:56:50.072Z,67.21
2022-09-23T19:59:18.997Z,64.41
2022-09-23T20:01:47.870Z,64.32
2022-09-23T20:04:16.162Z,62.89
2022-09-23T20:06:43.304Z,62.22
2022-09-23T20:09:10.421Z,62.87
2022-09-23T20:11:37.413Z,62.01
2022-09-23T20:14:06.453Z,62.25
2022-09-23T20:16:36.760Z,62.12
2022-09-23T20:19:05.528Z,64.50
2022-09-23T20:21:33.942Z,64.86
2022-09-23T20:24:02.275Z,63.43
2022-09-23T20:26:47.592Z,62.79
2022-09-23T20:29:15.196Z,63.61
2022-09-23T20:31:42.418Z,63.24
2022-09-23T20:34:10.716Z,63.30
2022-09-23T20:36:39.652Z,65.15
2022-09-23T20:39:06.773Z,64.55
2022-09-23T20:41:37.596Z,65.45
2022-09-23T20:44:07.956Z,66.22
2022-09-23T20:46:35.856Z,64.89
2022-09-23T20:49:04.922Z,65.65
2022-09-23T20:51:34.886Z,66.36
2022-09-23T20:54:02.275Z,65.90
2022-09-23T20:56:29.899Z,65.26
2022-09-23T20:59:04.960Z,65.85
2022-09-23T21:01:36.876Z,65.10
2022-09-23T21:04:06.049Z,67.18
2022-09-23T21:06:36.643Z,68.82
2022-09-23T21:09:05.700Z,65.89
2022-09-23T21:11:32.571Z,64.56
2022-09-23T21:14:01.092Z,64.64
2022-09-23T21:16:28.339Z,65.08
2022-09-23T21:18:55.256Z,66.07
2022-09-23T21:21:22.676Z,66.15
2022-09-23T21:23:51.099Z,68.63
2022-09-23T21:26:26.165Z,69.62
2022-09-23T21:28:59.864Z,66.98
2022-09-23T21:31:33.689Z,66.10
2022-09-23T21:34:06.965Z,67.83
2022-09-23T21:36:38.234Z,69.43
2022-09-23T21:39:06.948Z,69.39
2022-09-23T21:41:34.492Z,67.64
2022-09-23T21:44:04.705Z,67.28
2022-09-23T21:46:35.150Z,66.83
2022-09-23T21:49:03.679Z,67.17
2022-09-23T21:51:41.052Z,67.00
2022-09-23T21:54:14.224Z,70.73
2022-09-23T21:56:42.238Z,68.74
2022-09-23T21:59:09.616Z,67.45
2022-09-23T22:01:44.270Z,68.76
2022-09-23T22:04:17.788Z,71.57
2022-09-23T22:06:45.925Z,72.16
2022-09-23T22:09:18.881Z,71.49
2022-09-23T22:12:05.399Z,71.59
2022-09-23T22:14:32.382Z,71.30
2022-09-23T22:17:02.826Z,70.01
2022-09-23T22:19:40.218Z,70.41
2022-09-23T22:22:14.737Z,72.00
2022-09-23T22:24:43.399Z,70.79
2022-09-23T22:27:12.295Z,71.47
2022-09-23T22:29:58.227Z,70.25
2022-09-23T22:32:40.754Z,69.70
2022-09-23T22:35:11.372Z,70.15
2022-09-23T22:37:39.362Z,69.71
2022-09-23T22:40:10.049Z,68.38
2022-09-23T22:42:37.531Z,68.51
2022-09-23T22:45:05.764Z,68.93
2022-09-23T22:47:38.074Z,66.91
2022-09-23T22:50:08.039Z,69.49
2022-09-23T22:52:35.223Z,69.20
2022-09-23T22:55:03.485Z,68.36
2022-09-23T22:57:31.394Z,69.25
2022-09-23T22:59:58.384Z,69.60
2022-09-23T23:02:26.049Z,70.42
2022-09-23T23:04:53.355Z,70.34
2022-09-23T23:07:21.328Z,69.93
2022-09-23T23:09:52.454Z,68.67
2022-09-23T23:12:20.797Z,68.29
2022-09-23T23:14:49.105Z,68.23
2022-09-23T23:17:17.106Z,67.31
2022-09-23T23:19:44.179Z,68.46
2022-09-23T23:22:11.209Z,68.60
2022-09-23T23:24:38.167Z,68.69
2022-09-23T23:27:05.432Z,68.79
2022-09-23T23:29:32.323Z,70.09
2022-09-23T23:31:59.585Z,70.13
2022-09-23T23:34:26.529Z,70.95
2022-09-23T23:36:56.549Z,70.36
2022-09-23T23:39:24.934Z,70.18
2022-09-23T23:41:57.016Z,69.43
2022-09-23T23:44:25.941Z,69.90
2022-09-23T23:46:54.480Z,69.55
2022-09-23T23:49:22.099Z,69.24
2022-09-23T23:51:49.485Z,69.96
2022-09-23T23:54:16.537Z,70.95
2022-09-23T23:56:43.889Z,70.34
2022-09-23T23:59:11.237Z,70.51
